Flight Track Log - Related Links

Times and Time Zones

All times are in EDT time to prevent confusion due to time zone crossing. See the FSR103 flight status page for this flight to view local times or setup timezone preferences in your user account.

Time Position Orientation Groundspeed Altitude Reporting Facility
EDT Latitude Longitude Course Direction KTS MPH feet Rate Location/Type
Fri 12:27:22 PM 43.5800 -110.7506 131° Southeast 188 216 7,400  Level Salt Lake Center
Fri 12:28:24 PM 43.5211 -110.7775 198° South 220 253 11,000 3,504 Climbing Salt Lake Center
Fri 12:29:27 PM 43.4564 -110.8206 206° Southwest 252 290 14,700 3,216 Climbing Salt Lake Center
Fri 12:30:29 PM 43.3983 -110.7506 139° Southeast 318 366 17,700 3,290 Climbing Salt Lake Center
Fri 12:31:00 PM 43.0027 -110.7035 136° Southeast  Level FlightAware Approximate
Fri 12:31:31 PM 43.3908 -110.6033 94° East 336 387 21,500  Level Salt Lake Center
Fri 12:32:00 PM 42.9234 -110.5795 131° Southeast  Level FlightAware Approximate
Fri 12:32:33 PM 43.3833 -110.4733 94° East 348 400 24,000  Level Salt Lake Center
Fri 12:33:35 PM 43.3767 -110.3097 93° East 375 432 26,600 2,081 Climbing Salt Lake Center
Fri 12:34:37 PM 43.3689 -110.1622 94° East 399 459 28,300 1,500 Climbing Salt Lake Center
Fri 12:35:39 PM 43.3606 -110.0075 94° East 420 483 29,700 1,403 Climbing Salt Lake Center
Fri 12:36:41 PM 43.3506 -109.8167 94° East 444 511 31,200 1,355 Climbing Salt Lake Center
Fri 12:37:43 PM 43.3411 -109.6497 94° East 453 521 32,500 1,500 Climbing Salt Lake Center
Fri 12:38:45 PM 43.3303 -109.4494 94° East 466 536 34,300 1,645 Climbing Salt Lake Center
Fri 12:39:47 PM 43.3203 -109.2828 95° East 462 532 35,900 1,452 Climbing Salt Lake Center
Fri 12:40:49 PM 43.3092 -109.0869 94° East 460 529 37,300 1,161 Climbing Salt Lake Center
Fri 12:41:51 PM 43.2983 -108.9197 95° East 460 529 38,300 1,016 Climbing Salt Lake Center
Fri 12:42:53 PM 43.2858 -108.7217 95° East 466 536 39,400 1,016 Climbing Salt Lake Center
Fri 12:43:55 PM 43.2750 -108.5525 95° East 465 535 40,400 774 Climbing Salt Lake Center
Fri 12:44:57 PM 43.2625 -108.3561 95° East 463 533 41,000 290 Climbing Salt Lake Center
Fri 12:45:59 PM 43.2508 -108.1817 95° East 476 548 41,000  Level Salt Lake Center
Fri 12:47:01 PM 43.2358 -107.9747 96° East 485 558 41,000  Level Salt Lake Center
Fri 12:48:04 PM 43.2231 -107.7997 96° East 483 556 41,000  Level Salt Lake Center
Fri 12:49:06 PM 43.2108 -107.6225 95° East 485 558 41,000  Level Salt Lake Center
Fri 12:50:08 PM 43.1953 -107.4192 96° East 482 555 41,000  Level Salt Lake Center
Fri 12:51:10 PM 43.1831 -107.2500 96° East 480 552 41,000  Level Salt Lake Center
Fri 12:52:12 PM 43.1667 -107.0481 96° East 477 549 41,000  Level Salt Lake Center
Fri 12:53:14 PM 43.1531 -106.8731 96° East 482 555 41,000  Level Salt Lake Center
Fri 12:54:16 PM 43.1372 -106.6725 96° East 476 548 41,000  Level Salt Lake Center
Fri 12:55:18 PM 43.1225 -106.5000 97° East 476 548 41,000  Level Salt Lake Center
Fri 12:56:24 PM 43.1058 -106.2992 96° East 475 547 41,000  Level Denver Center
Fri 12:57:26 PM 43.0883 -106.1003 97° East 472 543 41,000  Level Denver Center
Fri 12:58:28 PM 43.0731 -105.9314 97° East 470 541 41,000  Level Denver Center
Fri 12:59:31 PM 43.0553 -105.7328 97° East 470 541 41,000  Level Denver Center
Fri 01:00:33 PM 43.0392 -105.5636 97° East 470 541 41,000  Level Denver Center
Fri 01:01:35 PM 43.0225 -105.3678 97° East 465 535 41,000  Level Denver Center
Fri 01:02:37 PM 43.0061 -105.2017 98° East 461 531 41,000  Level Denver Center
Fri 01:03:39 PM 42.9894 -105.0353 98° East 460 529 41,000  Level Denver Center
Fri 01:04:41 PM 42.9708 -104.8414 97° East 460 529 41,000  Level Denver Center
Fri 01:05:43 PM 42.9547 -104.6736 97° East 461 531 41,000  Level Denver Center
Fri 01:06:45 PM 42.9356 -104.4778 98° East 462 532 41,000  Level Denver Center
Fri 01:07:47 PM 42.9181 -104.3081 98° East 465 535 41,000  Level Denver Center
Fri 01:08:49 PM 42.8961 -104.1103 99° East 468 539 41,000  Level Denver Center
Fri 01:09:51 PM 42.8781 -103.9411 98° East 469 540 41,000  Level Denver Center
Fri 01:10:53 PM 42.8569 -103.7461 99° East 466 536 41,000  Level Denver Center
Fri 01:11:00 PM 42.8560 -103.7567 99° East  Level FlightAware Approximate
Fri 01:11:55 PM 42.8383 -103.5789 99° East 466 536 41,000  Level Denver Center
Fri 01:12:57 PM 42.8189 -103.4136 99° East 462 532 41,000  Level Denver Center
Fri 01:13:59 PM 42.7972 -103.2239 99° East 455 524 41,000  Level Denver Center
Fri 01:15:01 PM 42.7797 -103.0611 98° East 455 524 41,000  Level Denver Center
Fri 01:16:04 PM 42.7569 -102.8725 99° East 455 524 41,000  Level Denver Center
Fri 01:17:06 PM 42.7381 -102.7111 99° East 454 522 41,000  Level Denver Center
Fri 01:18:08 PM 42.7147 -102.5219 99° East 454 522 41,000  Level Denver Center
Fri 01:19:10 PM 42.6956 -102.3603 99° East 454 522 41,000  Level Denver Center
Fri 01:20:12 PM 42.6722 -102.1708 99° East 457 526 41,000  Level Denver Center
Fri 01:21:14 PM 42.6533 -102.0075 99° East 457 526 41,000  Level Denver Center
Fri 01:22:16 PM 42.6281 -101.8178 100° East 459 528 41,000  Level Denver Center
Fri 01:23:18 PM 42.6078 -101.6517 99° East 459 528 41,000  Level Denver Center
Fri 01:24:20 PM 42.5864 -101.4886 100° East 459 528 41,000  Level Denver Center
Fri 01:25:22 PM 42.5622 -101.3000 100° East 457 526 41,000  Level Denver Center
Fri 01:26:24 PM 42.5414 -101.1394 100° East 452 520 41,000  Level Denver Center
Fri 01:27:26 PM 42.5167 -100.9542 100° East 448 516 41,000  Level Denver Center
Fri 01:28:28 PM 42.4950 -100.7942 100° East 449 517 41,000  Level Denver Center
Fri 01:29:30 PM 42.4697 -100.6089 100° East 448 516 41,000  Level Denver Center
Fri 01:30:33 PM 42.4478 -100.4486 100° East 450 518 41,000  Level Denver Center
Fri 01:31:35 PM 42.4217 -100.2622 101° East 451 519 41,000  Level Denver Center
Fri 01:32:37 PM 42.3983 -100.1017 101° East 453 521 41,000  Level Denver Center
Fri 01:33:39 PM 42.3722 -99.9139 101° East 454 522 41,000  Level Denver Center
Fri 01:34:41 PM 42.3489 -99.7542 101° East 454 522 41,000  Level Denver Center
Fri 01:35:43 PM 42.3236 -99.5772 101° East 456 525 41,000  Level Denver Center
Fri 01:36:45 PM 42.2983 -99.4106 102° East 454 522 41,000  Level Denver Center
Fri 01:37:47 PM 42.2731 -99.2436 102° East 454 522 41,000  Level Denver Center
Fri 01:38:49 PM 42.2481 -99.0778 101° East 449 517 41,000  Level Denver Center
Fri 01:39:51 PM 42.2225 -98.9125 102° East 450 518 41,000  Level Denver Center
Fri 01:40:53 PM 42.1931 -98.7133 101° East 451 519 41,000  Level Denver Center
Fri 01:41:55 PM 42.1664 -98.5461 102° East 452 520 41,000  Level Denver Center
Fri 01:42:58 PM 42.1394 -98.3792 102° East 454 522 41,000  Level Denver Center
Fri 01:44:05 PM 42.1083 -98.1783 102° East 457 526 41,000  Level Minneapolis Center
Fri 01:45:07 PM 42.0894 -98.0592 102° East 454 522 41,000  Level Minneapolis Center
Fri 01:46:09 PM 42.0578 -97.8592 102° East 455 524 41,000  Level Minneapolis Center
Fri 01:47:12 PM 42.0292 -97.6933 103° East 455 524 41,000  Level Minneapolis Center
Fri 01:48:14 PM 42.0019 -97.5275 102° East 455 524 41,000  Level Minneapolis Center
Fri 01:49:16 PM 41.9689 -97.3258 102° East 458 527 41,000  Level Minneapolis Center
Fri 01:50:18 PM 41.9406 -97.1572 103° East 461 531 41,000  Level Minneapolis Center
Fri 01:51:20 PM 41.9106 -96.9894 103° East 462 532 41,000  Level Minneapolis Center
Fri 01:52:22 PM 41.8817 -96.8206 103° East 463 533 41,000  Level Minneapolis Center
Fri 01:53:24 PM 41.8525 -96.6533 103° East 461 531 41,000  Level Minneapolis Center
Fri 01:54:26 PM 41.8228 -96.4847 103° East 462 532 41,000  Level Minneapolis Center
Fri 01:55:28 PM 41.7875 -96.2819 103° East 461 531 41,000  Level Minneapolis Center
Fri 01:56:30 PM 41.7583 -96.1167 103° East 458 527 41,000  Level Minneapolis Center
Fri 01:57:32 PM 41.7269 -95.9483 104° East 460 529 41,000  Level Minneapolis Center
Fri 01:58:35 PM 41.6967 -95.7797 103° East 461 531 41,000  Level Minneapolis Center
Fri 01:59:37 PM 41.6656 -95.6114 104° East 462 532 41,000  Level Minneapolis Center
Fri 02:00:39 PM 41.6325 -95.4442 105° East 462 532 41,000  Level Minneapolis Center
Fri 02:01:41 PM 41.6014 -95.2750 104° East 465 535 41,000  Level Minneapolis Center
Fri 02:02:43 PM 41.5706 -95.1056 104° East 468 539 41,000  Level Minneapolis Center
Fri 02:03:45 PM 41.5314 -94.9056 105° East 464 534 41,000  Level Minneapolis Center
Fri 02:04:47 PM 41.4983 -94.7381 105° East 465 535 41,000  Level Minneapolis Center
Fri 02:05:49 PM 41.4656 -94.5697 105° East 467 537 41,000  Level Minneapolis Center
Fri 02:06:51 PM 41.4328 -94.4025 105° East 466 536 41,000  Level Minneapolis Center
Fri 02:07:53 PM 41.4000 -94.2347 105° East 468 539 41,000  Level Minneapolis Center
Fri 02:08:55 PM 41.3664 -94.0669 105° East 465 535 41,000  Level Minneapolis Center
Fri 02:09:58 PM 41.3333 -93.9003 105° East 466 536 41,000  Level Minneapolis Center
Fri 02:11:00 PM 41.2933 -93.7022 105° East 466 536 41,000  Level Minneapolis Center
Fri 02:12:02 PM 41.2597 -93.5369 105° East 466 536 41,000  Level Minneapolis Center
Fri 02:13:04 PM 41.2256 -93.3722 105° East 466 536 41,000  Level Minneapolis Center
Fri 02:14:06 PM 41.1906 -93.2069 106° East 466 536 41,000  Level Minneapolis Center
Fri 02:15:08 PM 41.1564 -93.0419 105° East 467 537 41,000  Level Minneapolis Center
Fri 02:16:10 PM 41.1142 -92.8447 106° East 466 536 41,000  Level Minneapolis Center
Fri 02:17:12 PM 41.0797 -92.6781 105° East 468 539 41,000  Level Minneapolis Center
Fri 02:18:14 PM 41.0442 -92.5144 106° East 468 539 41,000  Level Minneapolis Center
Fri 02:19:16 PM 41.0156 -92.3806 106° East 469 540 41,000  Level Minneapolis Center
Fri 02:20:18 PM 40.9728 -92.1819 106° East 470 541 41,000  Level Minneapolis Center
Fri 02:21:21 PM 40.9356 -92.0175 107° East 469 540 41,000  Level Minneapolis Center
Fri 02:22:23 PM 40.8925 -91.8228 106° East 465 535 41,000  Level Minneapolis Center
Fri 02:23:24 PM 40.8667 -91.7086 107° East 464 534 41,000 -210 Level Minneapolis Center
Fri 02:24:46 PM 40.8061 -91.4331 106° East 464 534 40,500 -662 Descending Chicago Center
Fri 02:25:49 PM 40.7664 -91.2667 107° East 463 533 39,400 -1,056 Descending Chicago Center
Fri 02:26:51 PM 40.7303 -91.1033 106° East 464 534 38,300 -1,161 Descending Chicago Center
Fri 02:27:53 PM 40.6925 -90.9397 107° East 467 537 37,000 -1,065 Descending Chicago Center
Fri 02:28:55 PM 40.6536 -90.7769 107° East 469 540 36,100 -1,403 Descending Chicago Center
Fri 02:29:57 PM 40.6156 -90.6114 107° East 474 545 34,100 -2,274 Descending Chicago Center
Fri 02:30:59 PM 40.5672 -90.4081 107° East 485 558 31,400 -2,419 Descending Chicago Center
Fri 02:32:01 PM 40.5164 -90.2447 112° Southeast 487 560 29,100 -2,226 Descending Chicago Center
Fri 02:33:03 PM 40.4539 -90.0931 118° Southeast 482 555 26,800 -2,032 Descending Chicago Center
Fri 02:34:05 PM 40.3953 -89.9486 118° Southeast 462 532 24,900 -1,548 Descending Chicago Center
Fri 02:35:07 PM 40.3406 -89.8117 118° Southeast 435 501 23,600 -1,935 Descending Chicago Center
Fri 02:36:09 PM 40.2869 -89.6406 112° Southeast 426 490 20,900 -2,371 Descending Chicago Center
Fri 02:37:11 PM 40.2636 -89.4939 102° East 416 479 18,700 -1,968 Descending Chicago Center
Fri 02:38:14 PM 40.2392 -89.3553 103° East 399 459 16,800 -1,968 Descending Chicago Center
Fri 02:39:16 PM 40.2150 -89.2206 103° East 386 444 14,600 -2,032 Descending Chicago Center
Fri 02:40:18 PM 40.1919 -89.0889 103° East 379 436 12,600 -1,258 Descending Chicago Center
Fri 02:41:20 PM 40.1661 -88.9494 104° East 339 390 12,000 -677 Descending Chicago Center
Fri 02:42:22 PM 40.1458 -88.8425 104° East 305 351 11,200 -1,258 Descending Chicago Center
Fri 02:43:24 PM 40.1269 -88.7417 104° East 291 335 9,400 -1,984 Descending Chicago Center
Fri 02:44:26 PM 40.1050 -88.6461 107° East 280 322 7,100 -2,323 Descending Chicago Center
Fri 02:45:28 PM 40.0781 -88.5606 112° Southeast 262 302 4,600 -1,790 Descending Chicago Center
Fri 02:46:30 PM 40.0744 -88.4733 93° East 248 285 3,400 -919 Descending Chicago Center
Fri 02:47:32 PM 40.0775 -88.4014 87° East 229 264 2,700 -677 Descending Chicago Center
Fri 02:49:00 PM 40.0388 -88.2778 108° East  Level Estimated
Fri 02:56:00 PM 40.0388 -88.2778 108° East  Level Estimated
Fri 02:57:00 PM 40.0388 -88.2778 108° East  Level Estimated
Fri 02:58:00 PM 40.0388 -88.2778 108° East  Level Estimated

Login

Don't have an account? Register now (free) for customized features, flight alerts, and more!